sensor_id;sensor_type;location;lat;lon;timestamp;P1;durP1;ratioP1;P2;durP2;ratioP2
43540;SDS011;29549;40.386;-3.710;2022-09-16T00:03:06;3.97;;;1.90;;
43540;SDS011;29549;40.386;-3.710;2022-09-16T00:13:08;2.45;;;1.42;;
43540;SDS011;29549;40.386;-3.710;2022-09-16T00:23:10;2.50;;;1.30;;
43540;SDS011;29549;40.386;-3.710;2022-09-16T00:33:12;2.38;;;1.20;;
43540;SDS011;29549;40.386;-3.710;2022-09-16T00:43:14;2.20;;;1.10;;
43540;SDS011;29549;40.386;-3.710;2022-09-16T00:53:22;2.88;;;1.20;;
43540;SDS011;29549;40.386;-3.710;2022-09-16T01:03:28;2.53;;;1.60;;
43540;SDS011;29549;40.386;-3.710;2022-09-16T01:13:31;3.85;;;1.30;;
43540;SDS011;29549;40.386;-3.710;2022-09-16T01:55:08;2.20;;;1.30;;
43540;SDS011;29549;40.386;-3.710;2022-09-16T02:05:15;1.42;;;1.15;;
43540;SDS011;29549;40.386;-3.710;2022-09-16T02:15:23;2.25;;;1.30;;
43540;SDS011;29549;40.386;-3.710;2022-09-16T02:25:30;2.25;;;1.45;;
43540;SDS011;29549;40.386;-3.710;2022-09-16T02:35:36;3.47;;;1.67;;
43540;SDS011;29549;40.386;-3.710;2022-09-16T03:06:05;2.53;;;1.50;;
43540;SDS011;29549;40.386;-3.710;2022-09-16T03:16:27;4.45;;;1.60;;
43540;SDS011;29549;40.386;-3.710;2022-09-16T03:37:18;2.78;;;1.42;;
43540;SDS011;29549;40.386;-3.710;2022-09-16T03:47:21;3.72;;;1.38;;
43540;SDS011;29549;40.386;-3.710;2022-09-16T03:57:23;5.30;;;1.65;;
43540;SDS011;29549;40.386;-3.710;2022-09-16T04:07:26;2.17;;;1.20;;
43540;SDS011;29549;40.386;-3.710;2022-09-16T04:17:30;3.45;;;1.40;;
43540;SDS011;29549;40.386;-3.710;2022-09-16T04:27:33;2.78;;;1.30;;
43540;SDS011;29549;40.386;-3.710;2022-09-16T04:37:35;2.40;;;1.27;;
43540;SDS011;29549;40.386;-3.710;2022-09-16T04:47:37;3.25;;;1.50;;
43540;SDS011;29549;40.386;-3.710;2022-09-16T04:57:38;5.25;;;1.30;;
43540;SDS011;29549;40.386;-3.710;2022-09-16T05:07:41;2.63;;;1.10;;
43540;SDS011;29549;40.386;-3.710;2022-09-16T05:17:43;2.45;;;1.30;;
43540;SDS011;29549;40.386;-3.710;2022-09-16T05:27:45;2.22;;;1.40;;
43540;SDS011;29549;40.386;-3.710;2022-09-16T05:37:48;5.55;;;1.85;;
43540;SDS011;29549;40.386;-3.710;2022-09-16T05:47:49;4.63;;;1.52;;
43540;SDS011;29549;40.386;-3.710;2022-09-16T05:57:51;4.85;;;1.95;;
43540;SDS011;29549;40.386;-3.710;2022-09-16T06:07:55;3.95;;;2.20;;
43540;SDS011;29549;40.386;-3.710;2022-09-16T06:17:56;4.03;;;2.10;;
43540;SDS011;29549;40.386;-3.710;2022-09-16T06:27:58;6.72;;;2.90;;
43540;SDS011;29549;40.386;-3.710;2022-09-16T06:38:00;6.30;;;2.35;;
43540;SDS011;29549;40.386;-3.710;2022-09-16T06:48:02;3.83;;;2.15;;
43540;SDS011;29549;40.386;-3.710;2022-09-16T06:58:03;6.93;;;2.05;;
43540;SDS011;29549;40.386;-3.710;2022-09-16T07:08:05;10.05;;;3.75;;
43540;SDS011;29549;40.386;-3.710;2022-09-16T07:18:07;7.95;;;3.38;;
43540;SDS011;29549;40.386;-3.710;2022-09-16T07:28:08;8.95;;;2.70;;
43540;SDS011;29549;40.386;-3.710;2022-09-16T07:38:10;4.95;;;2.80;;
43540;SDS011;29549;40.386;-3.710;2022-09-16T07:48:12;8.35;;;3.78;;
43540;SDS011;29549;40.386;-3.710;2022-09-16T07:58:14;7.22;;;2.78;;
43540;SDS011;29549;40.386;-3.710;2022-09-16T08:08:14;8.25;;;3.25;;
43540;SDS011;29549;40.386;-3.710;2022-09-16T08:18:15;12.65;;;3.88;;
43540;SDS011;29549;40.386;-3.710;2022-09-16T08:28:16;3.63;;;1.63;;
43540;SDS011;29549;40.386;-3.710;2022-09-16T08:38:17;8.90;;;2.10;;
43540;SDS011;29549;40.386;-3.710;2022-09-16T08:58:46;6.22;;;2.60;;
43540;SDS011;29549;40.386;-3.710;2022-09-16T09:08:55;6.47;;;5.25;;
43540;SDS011;29549;40.386;-3.710;2022-09-16T09:40:12;2.10;;;1.23;;
43540;SDS011;29549;40.386;-3.710;2022-09-16T09:50:40;2.85;;;1.30;;
43540;SDS011;29549;40.386;-3.710;2022-09-16T10:00:44;2.03;;;1.10;;
43540;SDS011;29549;40.386;-3.710;2022-09-16T10:10:50;2.42;;;1.38;;
43540;SDS011;29549;40.386;-3.710;2022-09-16T10:21:09;3.53;;;1.25;;
43540;SDS011;29549;40.386;-3.710;2022-09-16T10:31:16;3.53;;;1.50;;
43540;SDS011;29549;40.386;-3.710;2022-09-16T10:41:40;2.83;;;1.48;;
43540;SDS011;29549;40.386;-3.710;2022-09-16T10:51:46;3.05;;;1.45;;
43540;SDS011;29549;40.386;-3.710;2022-09-16T11:01:54;2.73;;;1.47;;
43540;SDS011;29549;40.386;-3.710;2022-09-16T11:12:14;4.53;;;1.33;;
43540;SDS011;29549;40.386;-3.710;2022-09-16T12:04:21;4.33;;;1.43;;
43540;SDS011;29549;40.386;-3.710;2022-09-16T12:14:34;2.25;;;1.30;;
43540;SDS011;29549;40.386;-3.710;2022-09-16T12:35:13;2.28;;;1.40;;
43540;SDS011;29549;40.386;-3.710;2022-09-16T12:55:48;4.75;;;1.50;;
43540;SDS011;29549;40.386;-3.710;2022-09-16T13:16:32;5.15;;;1.45;;
43540;SDS011;29549;40.386;-3.710;2022-09-16T13:26:39;2.28;;;1.25;;
43540;SDS011;29549;40.386;-3.710;2022-09-16T13:36:45;2.33;;;1.30;;
43540;SDS011;29549;40.386;-3.710;2022-09-16T13:46:47;3.67;;;1.50;;
43540;SDS011;29549;40.386;-3.710;2022-09-16T14:07:10;3.17;;;1.55;;
43540;SDS011;29549;40.386;-3.710;2022-09-16T14:17:23;1.73;;;1.00;;
43540;SDS011;29549;40.386;-3.710;2022-09-16T14:37:36;3.03;;;1.02;;
43540;SDS011;29549;40.386;-3.710;2022-09-16T14:47:39;2.13;;;1.10;;
43540;SDS011;29549;40.386;-3.710;2022-09-16T14:57:42;4.38;;;1.63;;
43540;SDS011;29549;40.386;-3.710;2022-09-16T15:07:44;3.55;;;1.90;;
43540;SDS011;29549;40.386;-3.710;2022-09-16T15:17:53;2.38;;;1.40;;
43540;SDS011;29549;40.386;-3.710;2022-09-16T15:28:16;3.78;;;1.42;;
43540;SDS011;29549;40.386;-3.710;2022-09-16T15:38:20;2.47;;;1.08;;
43540;SDS011;29549;40.386;-3.710;2022-09-16T15:48:23;3.55;;;1.50;;
43540;SDS011;29549;40.386;-3.710;2022-09-16T15:58:40;2.70;;;1.20;;
43540;SDS011;29549;40.386;-3.710;2022-09-16T16:08:48;5.28;;;1.88;;
43540;SDS011;29549;40.386;-3.710;2022-09-16T16:18:52;2.75;;;1.30;;
43540;SDS011;29549;40.386;-3.710;2022-09-16T16:28:54;3.35;;;1.00;;
43540;SDS011;29549;40.386;-3.710;2022-09-16T16:38:55;3.55;;;1.20;;
43540;SDS011;29549;40.386;-3.710;2022-09-16T16:48:57;4.07;;;1.50;;
43540;SDS011;29549;40.386;-3.710;2022-09-16T16:58:59;2.80;;;1.70;;
43540;SDS011;29549;40.386;-3.710;2022-09-16T17:19:02;4.20;;;1.27;;
43540;SDS011;29549;40.386;-3.710;2022-09-16T17:29:06;3.30;;;1.40;;
43540;SDS011;29549;40.386;-3.710;2022-09-16T17:39:15;2.55;;;1.70;;
43540;SDS011;29549;40.386;-3.710;2022-09-16T17:49:21;5.35;;;3.35;;
43540;SDS011;29549;40.386;-3.710;2022-09-16T17:59:24;6.88;;;4.85;;
43540;SDS011;29549;40.386;-3.710;2022-09-16T18:09:26;4.10;;;3.00;;
43540;SDS011;29549;40.386;-3.710;2022-09-16T18:19:28;4.88;;;3.10;;
43540;SDS011;29549;40.386;-3.710;2022-09-16T18:29:29;4.80;;;2.83;;
43540;SDS011;29549;40.386;-3.710;2022-09-16T18:39:31;7.22;;;2.25;;
43540;SDS011;29549;40.386;-3.710;2022-09-16T18:49:33;5.32;;;2.50;;
43540;SDS011;29549;40.386;-3.710;2022-09-16T18:59:34;7.85;;;3.15;;
43540;SDS011;29549;40.386;-3.710;2022-09-16T19:09:37;4.78;;;2.70;;
43540;SDS011;29549;40.386;-3.710;2022-09-16T19:19:40;7.70;;;4.53;;
43540;SDS011;29549;40.386;-3.710;2022-09-16T19:29:41;6.13;;;3.70;;
43540;SDS011;29549;40.386;-3.710;2022-09-16T19:39:43;4.47;;;2.27;;
43540;SDS011;29549;40.386;-3.710;2022-09-16T19:49:44;5.63;;;3.87;;
43540;SDS011;29549;40.386;-3.710;2022-09-16T19:59:46;9.03;;;4.10;;
43540;SDS011;29549;40.386;-3.710;2022-09-16T20:09:47;6.57;;;2.90;;
43540;SDS011;29549;40.386;-3.710;2022-09-16T20:19:49;3.05;;;2.40;;
43540;SDS011;29549;40.386;-3.710;2022-09-16T20:29:51;5.75;;;2.67;;
43540;SDS011;29549;40.386;-3.710;2022-09-16T20:39:52;5.13;;;2.92;;
43540;SDS011;29549;40.386;-3.710;2022-09-16T20:49:56;4.85;;;3.80;;
43540;SDS011;29549;40.386;-3.710;2022-09-16T20:59:58;4.45;;;2.97;;
43540;SDS011;29549;40.386;-3.710;2022-09-16T21:09:59;12.17;;;7.13;;
43540;SDS011;29549;40.386;-3.710;2022-09-16T21:20:02;6.65;;;4.32;;
43540;SDS011;29549;40.386;-3.710;2022-09-16T21:30:04;5.18;;;2.53;;
43540;SDS011;29549;40.386;-3.710;2022-09-16T21:40:08;4.25;;;1.70;;
43540;SDS011;29549;40.386;-3.710;2022-09-16T21:50:12;2.42;;;1.65;;
43540;SDS011;29549;40.386;-3.710;2022-09-16T22:00:14;3.35;;;1.90;;
43540;SDS011;29549;40.386;-3.710;2022-09-16T22:10:16;3.37;;;1.67;;
43540;SDS011;29549;40.386;-3.710;2022-09-16T22:20:18;2.97;;;1.38;;
43540;SDS011;29549;40.386;-3.710;2022-09-16T22:30:23;3.00;;;1.90;;
43540;SDS011;29549;40.386;-3.710;2022-09-16T22:40:24;2.57;;;1.70;;
43540;SDS011;29549;40.386;-3.710;2022-09-16T22:50:26;5.27;;;2.00;;
43540;SDS011;29549;40.386;-3.710;2022-09-16T23:00:29;2.67;;;1.50;;
43540;SDS011;29549;40.386;-3.710;2022-09-16T23:10:30;3.35;;;1.80;;
43540;SDS011;29549;40.386;-3.710;2022-09-16T23:20:32;4.67;;;2.23;;
43540;SDS011;29549;40.386;-3.710;2022-09-16T23:30:33;1.97;;;1.60;;
43540;SDS011;29549;40.386;-3.710;2022-09-16T23:40:35;3.85;;;1.90;;
43540;SDS011;29549;40.386;-3.710;2022-09-16T23:50:37;3.10;;;2.33;;
